createdAt,value
2023-02-06T00:07:59.477Z,7.4
2023-02-06T00:22:59.443Z,7.4
2023-02-06T00:32:59.454Z,7.5
2023-02-06T00:37:59.439Z,7.5
2023-02-06T00:42:59.448Z,7.5
2023-02-06T00:52:59.472Z,7.5
2023-02-06T01:02:59.479Z,7.7
2023-02-06T01:12:59.480Z,7.8
2023-02-06T01:22:59.447Z,7.8
2023-02-06T01:42:59.493Z,7.8
2023-02-06T01:47:59.476Z,7.9
2023-02-06T01:57:59.464Z,7.9
2023-02-06T02:07:59.520Z,7.9
2023-02-06T02:17:59.467Z,7.9
2023-02-06T02:22:59.468Z,8
2023-02-06T02:27:59.670Z,7.9
2023-02-06T02:37:59.471Z,8
2023-02-06T02:42:59.468Z,8.1
2023-02-06T03:02:59.515Z,8.2
2023-02-06T03:12:59.477Z,8.3
2023-02-06T03:17:59.489Z,8.3
2023-02-06T03:27:59.570Z,8.3
2023-02-06T03:32:59.482Z,8.4
2023-02-06T03:42:59.478Z,8.4
2023-02-06T03:47:59.513Z,8.5
2023-02-06T03:57:59.485Z,8.4
2023-02-06T04:02:59.498Z,8.5
2023-02-06T04:22:59.577Z,8.5
2023-02-06T04:27:59.585Z,8.6
2023-02-06T04:37:59.491Z,8.6
2023-02-06T04:47:59.682Z,8.6
2023-02-06T04:57:59.499Z,8.6
2023-02-06T05:07:59.516Z,8.7
2023-02-06T05:12:59.495Z,8.7
2023-02-06T05:17:59.493Z,8.7
2023-02-06T05:42:59.589Z,8.8
2023-02-06T05:52:59.490Z,8.9
2023-02-06T06:02:59.524Z,8.8
2023-02-06T06:07:59.505Z,8.8
2023-02-06T06:12:59.505Z,8.8
2023-02-06T06:17:59.509Z,8.8
2023-02-06T06:27:59.577Z,8.9
2023-02-06T06:32:59.503Z,8.9
2023-02-06T06:37:59.543Z,8.9
2023-02-06T07:02:59.664Z,8.9
2023-02-06T07:12:59.511Z,9
2023-02-06T07:22:59.528Z,9
2023-02-06T07:27:59.591Z,9
2023-02-06T07:37:59.510Z,9
2023-02-06T07:48:00.565Z,9
2023-02-06T07:52:59.580Z,9
2023-02-06T08:02:59.548Z,8.9
2023-02-06T08:07:59.585Z,8.9
2023-02-06T08:22:59.548Z,8.9
2023-02-06T08:27:59.592Z,8.9
2023-02-06T08:37:59.548Z,8.9
2023-02-06T08:42:59.549Z,8.9
2023-02-06T08:47:59.592Z,8.9
2023-02-06T08:57:59.547Z,8.9
2023-02-06T09:02:59.556Z,8.9
2023-02-06T09:12:59.575Z,8.9
2023-02-06T09:22:59.543Z,8.9
2023-02-06T09:42:59.568Z,8.9
2023-02-06T09:47:59.552Z,8.8
2023-02-06T09:57:59.547Z,8.9
2023-02-06T10:02:59.586Z,8.8
2023-02-06T10:12:59.545Z,8.8
2023-02-06T10:17:59.756Z,8.8
2023-02-06T10:27:59.625Z,8.9
2023-02-06T10:32:59.551Z,8.9
2023-02-06T10:42:59.558Z,8.9
2023-02-06T11:03:07.202Z,8.8
2023-02-06T11:07:59.554Z,8.9
2023-02-06T11:17:59.556Z,8.9
2023-02-06T11:22:59.582Z,8.8
2023-02-06T11:33:04.576Z,8.8
2023-02-06T11:42:59.588Z,8.9
2023-02-06T11:52:59.565Z,8.9
2023-02-06T11:57:59.564Z,8.9
2023-02-06T12:02:59.583Z,8.9
2023-02-06T12:22:59.583Z,8.9
2023-02-06T12:27:59.712Z,8.8
2023-02-06T12:37:59.713Z,8.9
2023-02-06T12:42:59.588Z,8.9
2023-02-06T12:52:59.550Z,8.8
2023-02-06T13:02:59.660Z,8.7
2023-02-06T13:07:59.555Z,8.7
2023-02-06T13:17:59.559Z,8.7
2023-02-06T13:37:59.596Z,8.7
2023-02-06T13:42:59.571Z,8.7
2023-02-06T13:52:59.583Z,8.7
2023-02-06T14:02:59.628Z,8.7
2023-02-06T14:12:59.580Z,8.7
2023-02-06T14:17:59.583Z,8.7
2023-02-06T14:27:59.668Z,8.7
2023-02-06T14:37:59.568Z,8.7
2023-02-06T14:57:59.615Z,8.7
2023-02-06T15:02:59.570Z,8.6
2023-02-06T15:07:59.578Z,8.6
2023-02-06T15:12:59.582Z,8.6
2023-02-06T15:23:11.700Z,8.5
2023-02-06T15:27:59.597Z,8.5
2023-02-06T15:37:59.576Z,8.5
2023-02-06T15:42:59.611Z,8.4
2023-02-06T15:47:59.575Z,8.4
2023-02-06T15:52:59.577Z,8.4
2023-02-06T16:17:59.894Z,8.4
2023-02-06T16:22:59.586Z,8.4
2023-02-06T16:27:59.726Z,8.3
2023-02-06T16:37:59.601Z,8.4
2023-02-06T16:42:59.588Z,8.4
2023-02-06T16:47:59.577Z,8.4
2023-02-06T16:52:59.577Z,8.3
2023-02-06T17:02:59.645Z,8.3
2023-02-06T17:07:59.703Z,8.3
2023-02-06T17:17:59.605Z,8.2
2023-02-06T17:42:59.633Z,8.5
2023-02-06T17:47:59.608Z,8.5
2023-02-06T17:57:59.629Z,8.5
2023-02-06T18:02:59.816Z,8.5
2023-02-06T18:12:59.640Z,8.7
2023-02-06T18:22:59.649Z,8.8
2023-02-06T18:27:59.660Z,8.8
2023-02-06T18:32:59.608Z,8.8
2023-02-06T18:37:59.617Z,8.8
2023-02-06T18:42:59.692Z,8.8
2023-02-06T18:57:59.610Z,8.9
2023-02-06T19:07:59.653Z,9
2023-02-06T19:12:59.629Z,9
2023-02-06T19:22:59.630Z,9
2023-02-06T19:27:59.701Z,9
2023-02-06T19:37:59.628Z,9
2023-02-06T19:47:59.648Z,8.9
2023-02-06T19:52:59.660Z,9.1
2023-02-06T20:17:59.769Z,9.1
2023-02-06T20:27:59.700Z,9.2
2023-02-06T20:32:59.685Z,9.3
2023-02-06T20:42:59.768Z,9.3
2023-02-06T20:52:59.661Z,9.3
2023-02-06T20:57:59.664Z,9.1
2023-02-06T21:02:59.717Z,9.3
2023-02-06T21:07:59.675Z,9.2
2023-02-06T21:17:59.675Z,9.4
2023-02-06T21:37:59.780Z,9.4
2023-02-06T21:47:59.685Z,9.5
2023-02-06T21:57:59.706Z,9.5
2023-02-06T22:07:59.680Z,9.6
2023-02-06T22:12:59.692Z,9.6
2023-02-06T22:22:59.709Z,9.7
2023-02-06T22:27:59.731Z,9.6
2023-02-06T22:32:59.683Z,9.7
2023-02-06T22:52:59.716Z,9.9
2023-02-06T23:02:59.677Z,9.8
2023-02-06T23:12:59.710Z,9.9
2023-02-06T23:17:59.684Z,10
2023-02-06T23:27:59.702Z,10
2023-02-06T23:37:59.714Z,10
2023-02-06T23:47:59.690Z,10.1
